createdAt,value
2023-09-03T00:01:45.820Z,30.80
2023-09-03T00:04:18.496Z,32.40
2023-09-03T00:06:48.607Z,31.30
2023-09-03T00:09:37.255Z,32.95
2023-09-03T00:12:09.937Z,33.90
2023-09-03T00:14:42.753Z,32.28
2023-09-03T00:17:15.529Z,29.97
2023-09-03T00:19:45.820Z,32.08
2023-09-03T00:22:16.049Z,31.03
2023-09-03T00:24:46.246Z,31.57
2023-09-03T00:27:16.361Z,33.22
2023-09-03T00:29:49.279Z,31.52
2023-09-03T00:32:19.400Z,30.70
2023-09-03T00:34:52.824Z,32.30
2023-09-03T00:37:23.115Z,32.22
2023-09-03T00:39:53.289Z,31.88
2023-09-03T00:42:28.358Z,33.80
2023-09-03T00:45:01.453Z,31.10
2023-09-03T00:47:32.288Z,31.73
2023-09-03T00:50:04.630Z,33.55
2023-09-03T00:52:35.351Z,32.60
2023-09-03T00:55:07.214Z,32.97
2023-09-03T00:57:37.472Z,33.15
2023-09-03T01:00:13.101Z,34.72
2023-09-03T01:02:45.634Z,33.47
2023-09-03T01:05:16.137Z,37.75
2023-09-03T01:07:46.393Z,34.05
2023-09-03T01:10:19.889Z,33.37
2023-09-03T01:12:58.623Z,33.78
2023-09-03T01:15:37.764Z,33.83
2023-09-03T01:18:13.442Z,33.95
2023-09-03T01:20:53.985Z,33.50
2023-09-03T01:23:40.509Z,33.05
2023-09-03T01:26:29.022Z,33.55
2023-09-03T01:29:03.210Z,33.97
2023-09-03T01:31:35.322Z,32.38
2023-09-03T01:34:07.312Z,33.80
2023-09-03T01:36:44.653Z,34.63
2023-09-03T01:39:19.059Z,36.28
2023-09-03T01:41:49.133Z,32.90
2023-09-03T01:44:21.885Z,32.65
2023-09-03T01:46:54.009Z,33.50
2023-09-03T01:49:38.865Z,34.08
2023-09-03T01:52:20.734Z,32.42
2023-09-03T01:54:52.856Z,31.85
2023-09-03T01:57:29.356Z,33.47
2023-09-03T02:00:06.736Z,32.15
2023-09-03T02:02:47.832Z,32.97
2023-09-03T02:05:19.791Z,32.85
2023-09-03T02:07:50.277Z,36.77
2023-09-03T02:10:20.757Z,33.42
2023-09-03T02:12:51.062Z,33.13
2023-09-03T02:15:24.002Z,33.72
2023-09-03T02:17:57.021Z,32.10
2023-09-03T02:20:27.685Z,33.78
2023-09-03T02:22:57.736Z,32.93
2023-09-03T02:25:27.952Z,33.22
2023-09-03T02:27:58.188Z,34.13
2023-09-03T02:30:31.397Z,33.97
2023-09-03T02:33:01.695Z,34.47
2023-09-03T02:35:31.997Z,35.10
2023-09-03T02:38:04.326Z,33.80
2023-09-03T02:40:34.341Z,33.25
2023-09-03T02:43:04.432Z,33.97
2023-09-03T02:45:37.396Z,31.77
2023-09-03T02:48:08.727Z,33.63
2023-09-03T02:50:42.162Z,35.00
2023-09-03T02:53:12.359Z,33.30
2023-09-03T02:55:42.495Z,33.53
2023-09-03T02:58:13.744Z,32.75
2023-09-03T03:00:46.661Z,34.13
2023-09-03T03:03:17.335Z,34.00
2023-09-03T03:05:47.540Z,32.93
2023-09-03T03:08:18.036Z,32.67
2023-09-03T03:10:48.331Z,35.17
2023-09-03T03:13:20.401Z,32.17
2023-09-03T03:15:54.379Z,32.22
2023-09-03T03:18:24.700Z,32.67
2023-09-03T03:20:57.280Z,33.37
2023-09-03T03:23:27.364Z,32.33
2023-09-03T03:25:57.744Z,31.90
2023-09-03T03:28:29.060Z,33.30
2023-09-03T03:31:02.569Z,31.73
2023-09-03T03:33:32.686Z,32.53
2023-09-03T03:36:03.561Z,32.43
2023-09-03T03:38:33.825Z,31.23
2023-09-03T03:41:14.376Z,34.17
2023-09-03T03:43:47.663Z,32.13
2023-09-03T03:46:22.152Z,31.80
2023-09-03T03:48:55.306Z,31.00
2023-09-03T03:51:25.504Z,30.97
2023-09-03T03:53:56.642Z,28.83
2023-09-03T03:56:27.986Z,31.83
2023-09-03T03:58:58.130Z,28.83
2023-09-03T04:01:31.225Z,28.47
2023-09-03T04:04:01.457Z,27.07
2023-09-03T04:06:31.512Z,26.30
2023-09-03T04:09:02.188Z,23.70
2023-09-03T04:11:32.220Z,23.17
2023-09-03T04:14:02.300Z,21.63
2023-09-03T04:16:35.081Z,20.73
2023-09-03T04:19:05.213Z,19.70
2023-09-03T04:21:35.309Z,18.43
2023-09-03T04:24:05.377Z,17.77
2023-09-03T04:26:35.511Z,16.47
2023-09-03T04:29:15.085Z,16.10
2023-09-03T04:31:47.959Z,15.17
2023-09-03T04:34:18.192Z,14.40
2023-09-03T04:36:48.486Z,13.73
2023-09-03T04:39:18.727Z,12.53
2023-09-03T04:41:48.821Z,13.23
2023-09-03T04:44:18.863Z,13.17
2023-09-03T04:46:55.065Z,12.10
2023-09-03T04:49:26.795Z,12.50
2023-09-03T04:51:56.901Z,11.03
2023-09-03T04:54:27.063Z,12.20
2023-09-03T04:56:57.210Z,11.63
2023-09-03T04:59:28.186Z,11.47
2023-09-03T05:02:00.896Z,11.97
2023-09-03T05:04:31.029Z,12.30
2023-09-03T05:07:01.449Z,13.47
2023-09-03T05:09:34.923Z,11.73
2023-09-03T05:12:05.147Z,11.70
2023-09-03T05:14:36.316Z,11.23
2023-09-03T05:17:09.408Z,11.43
2023-09-03T05:19:39.736Z,10.53
2023-09-03T05:22:10.381Z,10.47
2023-09-03T05:24:40.652Z,10.80
2023-09-03T05:27:10.815Z,11.35
2023-09-03T05:29:41.182Z,10.20
2023-09-03T05:32:14.035Z,10.63
2023-09-03T05:34:44.180Z,9.95
2023-09-03T05:37:14.873Z,10.65
2023-09-03T05:39:45.050Z,10.23
2023-09-03T05:42:15.148Z,9.65
2023-09-03T05:44:45.282Z,11.13
2023-09-03T05:47:21.862Z,8.88
2023-09-03T05:49:58.377Z,10.00
2023-09-03T05:52:29.000Z,9.65
2023-09-03T05:54:59.144Z,8.52
2023-09-03T05:57:29.549Z,8.30
2023-09-03T06:00:02.801Z,10.00
2023-09-03T06:02:38.072Z,8.85
2023-09-03T06:05:09.416Z,9.52
2023-09-03T06:07:39.668Z,9.93
2023-09-03T06:10:11.115Z,8.23
2023-09-03T06:12:41.228Z,8.43
2023-09-03T06:15:15.687Z,7.55
2023-09-03T06:17:52.147Z,8.00
2023-09-03T06:20:22.279Z,6.70
2023-09-03T06:22:54.337Z,6.50
2023-09-03T06:25:24.695Z,7.03
2023-09-03T06:27:54.784Z,6.00
2023-09-03T06:30:24.960Z,6.88
2023-09-03T06:32:58.675Z,7.05
2023-09-03T06:35:28.848Z,5.82
2023-09-03T06:37:59.805Z,6.07
2023-09-03T06:40:30.199Z,6.55
2023-09-03T06:43:00.364Z,5.85
2023-09-03T06:45:31.825Z,6.05
2023-09-03T06:48:04.545Z,6.57
2023-09-03T06:50:37.662Z,6.40
2023-09-03T06:53:08.079Z,6.82
2023-09-03T06:55:38.211Z,6.43
2023-09-03T06:58:08.791Z,5.75
2023-09-03T07:00:38.897Z,5.97
2023-09-03T07:03:11.690Z,5.43
2023-09-03T07:05:41.819Z,6.57
2023-09-03T07:08:11.988Z,5.68
2023-09-03T07:10:44.338Z,5.68
2023-09-03T07:13:16.230Z,4.55
2023-09-03T07:15:46.303Z,4.75
2023-09-03T07:18:18.993Z,6.18
2023-09-03T07:20:49.275Z,4.47
2023-09-03T07:23:19.507Z,4.57
2023-09-03T07:25:52.454Z,3.90
2023-09-03T07:28:22.829Z,3.88
2023-09-03T07:30:53.187Z,3.60
2023-09-03T07:33:25.904Z,3.70
2023-09-03T07:35:55.998Z,4.25
2023-09-03T07:38:26.588Z,4.47
2023-09-03T07:40:56.904Z,5.47
2023-09-03T07:43:27.233Z,3.28
2023-09-03T07:45:57.402Z,3.08
2023-09-03T07:48:30.299Z,5.93
2023-09-03T07:51:00.605Z,2.80
2023-09-03T07:53:31.164Z,3.20
2023-09-03T07:56:01.208Z,4.32
2023-09-03T07:58:31.438Z,3.63
2023-09-03T08:01:01.532Z,4.97
2023-09-03T08:03:38.387Z,3.58
2023-09-03T08:06:08.764Z,3.25
2023-09-03T08:08:39.960Z,2.88
2023-09-03T08:11:10.238Z,5.88
2023-09-03T08:13:40.295Z,4.07
2023-09-03T08:16:10.423Z,2.80
2023-09-03T08:18:43.120Z,4.43
2023-09-03T08:21:13.112Z,2.38
2023-09-03T08:23:43.184Z,5.60
2023-09-03T08:26:13.920Z,2.40
2023-09-03T08:28:43.956Z,3.15
2023-09-03T08:31:14.892Z,2.53
2023-09-03T08:33:55.296Z,3.45
2023-09-03T08:36:26.134Z,2.40
2023-09-03T08:38:57.243Z,3.85
2023-09-03T08:41:28.628Z,2.47
2023-09-03T08:44:02.021Z,2.97
2023-09-03T08:46:35.134Z,4.70
2023-09-03T08:49:08.862Z,3.67
2023-09-03T08:51:39.941Z,2.70
2023-09-03T08:54:11.437Z,2.40
2023-09-03T08:56:41.488Z,3.08
2023-09-03T08:59:13.408Z,3.55
2023-09-03T09:01:43.970Z,2.90
2023-09-03T09:04:17.064Z,4.28
2023-09-03T09:06:47.814Z,3.72
2023-09-03T09:09:20.253Z,6.43
2023-09-03T09:12:02.477Z,3.90
2023-09-03T09:14:40.005Z,3.55
2023-09-03T09:17:15.346Z,3.10
2023-09-03T09:19:48.065Z,2.45
2023-09-03T09:22:20.608Z,2.05
2023-09-03T09:24:51.681Z,1.90
2023-09-03T09:27:23.944Z,1.90
2023-09-03T09:29:54.236Z,1.67
2023-09-03T09:32:28.436Z,2.15
2023-09-03T09:35:01.250Z,1.88
2023-09-03T09:37:40.893Z,2.17
2023-09-03T09:40:13.933Z,2.13
2023-09-03T09:42:56.178Z,6.00
2023-09-03T09:45:26.399Z,2.25
2023-09-03T09:48:07.882Z,4.90
2023-09-03T09:50:42.225Z,4.22
2023-09-03T09:53:24.788Z,2.30
2023-09-03T09:56:02.857Z,1.92
2023-09-03T09:58:39.998Z,4.20
2023-09-03T10:01:11.143Z,9.15
2023-09-03T10:03:46.485Z,21.92
2023-09-03T10:06:20.879Z,5.45
2023-09-03T10:08:52.867Z,2.78
2023-09-03T10:11:23.673Z,2.25
2023-09-03T10:13:54.471Z,3.05
2023-09-03T10:16:25.296Z,2.25
2023-09-03T10:18:56.243Z,2.58
2023-09-03T10:21:52.402Z,2.28
2023-09-03T10:24:22.880Z,2.63
2023-09-03T10:26:57.725Z,2.15
2023-09-03T10:29:31.025Z,2.90
2023-09-03T10:32:04.357Z,3.90
2023-09-03T10:34:35.876Z,11.60
2023-09-03T10:37:13.319Z,2.97
2023-09-03T10:39:44.585Z,2.88
2023-09-03T10:42:37.730Z,1.98
2023-09-03T10:45:19.643Z,2.05
2023-09-03T10:48:09.642Z,3.17
2023-09-03T10:50:48.644Z,4.30
2023-09-03T10:53:41.027Z,1.98
2023-09-03T10:56:29.030Z,1.80
2023-09-03T10:59:01.081Z,3.75
2023-09-03T11:01:35.260Z,2.92
2023-09-03T11:04:07.042Z,2.33
2023-09-03T11:06:38.390Z,2.78
2023-09-03T11:09:29.052Z,1.90
2023-09-03T11:12:08.301Z,2.05
2023-09-03T11:14:38.653Z,4.15
2023-09-03T11:17:15.181Z,1.63
2023-09-03T11:19:45.431Z,3.35
2023-09-03T11:22:15.784Z,3.05
2023-09-03T11:24:51.750Z,1.75
2023-09-03T11:27:21.983Z,2.70
2023-09-03T11:29:52.161Z,1.92
2023-09-03T11:32:39.267Z,2.90
2023-09-03T11:35:09.997Z,1.67
2023-09-03T11:37:40.148Z,2.65
2023-09-03T11:40:14.173Z,2.20
2023-09-03T11:42:45.660Z,1.52
2023-09-03T11:45:16.128Z,2.67
2023-09-03T11:47:51.005Z,2.13
2023-09-03T11:50:22.331Z,3.17
2023-09-03T11:52:52.893Z,2.10
2023-09-03T11:55:27.640Z,2.13
2023-09-03T11:58:02.141Z,2.42
2023-09-03T12:00:33.237Z,1.90
2023-09-03T12:03:04.624Z,1.70
2023-09-03T12:05:37.069Z,2.42
2023-09-03T12:08:08.491Z,2.70
2023-09-03T12:10:43.791Z,2.63
2023-09-03T12:13:14.052Z,1.80
2023-09-03T12:15:44.310Z,1.98
2023-09-03T12:18:14.635Z,2.15
2023-09-03T12:20:51.455Z,2.92
2023-09-03T12:23:22.393Z,1.85
2023-09-03T12:25:57.261Z,2.30
2023-09-03T12:28:38.549Z,1.77
2023-09-03T12:31:09.943Z,1.80
2023-09-03T12:33:51.813Z,1.85
2023-09-03T12:36:23.548Z,1.80
2023-09-03T12:38:58.365Z,2.42
2023-09-03T12:41:41.349Z,2.85
2023-09-03T12:44:16.653Z,3.15
2023-09-03T12:46:49.777Z,1.65
2023-09-03T12:49:21.989Z,4.10
2023-09-03T12:51:53.486Z,3.47
2023-09-03T12:54:24.263Z,2.83
2023-09-03T12:57:00.748Z,4.32
2023-09-03T12:59:31.724Z,2.97
2023-09-03T13:02:05.950Z,5.25
2023-09-03T13:04:37.988Z,3.42
2023-09-03T13:07:08.182Z,1.55
2023-09-03T13:09:38.354Z,2.28
2023-09-03T13:12:11.616Z,2.55
2023-09-03T13:14:41.777Z,4.38
2023-09-03T13:17:14.630Z,2.05
2023-09-03T13:19:47.754Z,1.77
2023-09-03T13:22:20.367Z,2.38
2023-09-03T13:24:50.475Z,2.42
2023-09-03T13:27:23.475Z,1.83
2023-09-03T13:29:53.709Z,1.77
2023-09-03T13:32:31.897Z,2.55
2023-09-03T13:35:03.460Z,1.70
2023-09-03T13:37:33.671Z,3.05
2023-09-03T13:40:06.863Z,2.00
2023-09-03T13:42:41.374Z,2.50
2023-09-03T13:45:15.183Z,2.08
2023-09-03T13:47:49.942Z,1.63
2023-09-03T13:50:22.913Z,2.10
2023-09-03T13:52:52.999Z,12.38
2023-09-03T13:55:27.608Z,5.25
2023-09-03T13:58:03.455Z,2.13
2023-09-03T14:00:36.119Z,1.90
2023-09-03T14:03:09.303Z,2.25
2023-09-03T14:05:39.855Z,1.98
2023-09-03T14:08:11.548Z,2.30
2023-09-03T14:10:49.573Z,1.90
2023-09-03T14:13:25.297Z,1.80
2023-09-03T14:15:55.806Z,16.38
2023-09-03T14:18:29.675Z,6.32
2023-09-03T14:21:01.639Z,2.22
2023-09-03T14:23:32.188Z,4.63
2023-09-03T14:26:02.516Z,3.10
2023-09-03T14:28:36.915Z,1.58
2023-09-03T14:31:07.038Z,1.80
2023-09-03T14:33:37.288Z,2.15
2023-09-03T14:36:08.288Z,5.95
2023-09-03T14:38:38.697Z,1.50
2023-09-03T14:41:08.844Z,2.30
2023-09-03T14:43:41.759Z,2.17
2023-09-03T14:46:11.860Z,22.83
2023-09-03T14:48:41.962Z,7.70
2023-09-03T14:51:12.036Z,1.95
2023-09-03T14:53:42.067Z,2.33
2023-09-03T14:56:13.284Z,5.10
2023-09-03T14:58:46.054Z,2.60
2023-09-03T15:01:19.737Z,2.85
2023-09-03T15:03:52.291Z,1.77
2023-09-03T15:06:26.865Z,1.40
2023-09-03T15:08:57.310Z,2.08
2023-09-03T15:11:28.250Z,2.00
2023-09-03T15:14:04.063Z,3.13
2023-09-03T15:16:35.347Z,4.13
2023-09-03T15:19:05.552Z,2.30
2023-09-03T15:21:36.553Z,2.13
2023-09-03T15:24:07.041Z,5.57
2023-09-03T15:26:37.401Z,3.00
2023-09-03T15:29:10.545Z,2.15
2023-09-03T15:31:40.710Z,2.38
2023-09-03T15:34:12.086Z,3.00
2023-09-03T15:36:42.410Z,6.05
2023-09-03T15:39:14.821Z,1.70
2023-09-03T15:41:44.859Z,2.20
2023-09-03T15:44:17.636Z,1.95
2023-09-03T15:46:48.451Z,1.73
2023-09-03T15:49:18.611Z,1.70
2023-09-03T15:51:49.080Z,2.22
2023-09-03T15:54:19.832Z,3.22
2023-09-03T15:56:49.895Z,3.13
2023-09-03T15:59:25.878Z,3.38
2023-09-03T16:01:57.049Z,2.72
2023-09-03T16:04:27.474Z,44.50
2023-09-03T16:06:57.683Z,6.10
2023-09-03T16:09:27.913Z,3.42
2023-09-03T16:11:58.157Z,2.03
2023-09-03T16:14:30.940Z,2.13
2023-09-03T16:17:01.007Z,3.08
2023-09-03T16:19:31.260Z,2.22
2023-09-03T16:22:01.482Z,2.47
2023-09-03T16:24:31.827Z,2.00
2023-09-03T16:27:02.008Z,2.28
2023-09-03T16:29:34.828Z,5.53
2023-09-03T16:32:04.966Z,6.53
2023-09-03T16:34:35.413Z,3.78
2023-09-03T16:37:07.418Z,2.85
2023-09-03T16:39:40.111Z,2.50
2023-09-03T16:42:10.487Z,2.25
2023-09-03T16:44:43.558Z,2.65
2023-09-03T16:47:13.720Z,3.05
2023-09-03T16:49:43.770Z,3.10
2023-09-03T16:52:13.930Z,2.40
2023-09-03T16:54:44.151Z,2.10
2023-09-03T16:57:14.271Z,81.07
2023-09-03T16:59:46.962Z,33.03
2023-09-03T17:02:17.153Z,2.42
2023-09-03T17:04:47.380Z,2.40
2023-09-03T17:07:17.515Z,4.05
2023-09-03T17:09:48.127Z,1.95
2023-09-03T17:12:18.199Z,2.92
2023-09-03T17:14:53.904Z,4.93
2023-09-03T17:17:23.993Z,4.47
2023-09-03T17:19:54.532Z,2.88
2023-09-03T17:22:24.741Z,3.80
2023-09-03T17:24:54.857Z,3.83
2023-09-03T17:27:24.886Z,3.50
2023-09-03T17:29:58.432Z,3.33
2023-09-03T17:32:28.519Z,3.25
2023-09-03T17:34:58.613Z,3.10
2023-09-03T17:37:28.711Z,5.20
2023-09-03T17:39:59.945Z,5.00
2023-09-03T17:42:30.017Z,4.75
2023-09-03T17:45:03.382Z,3.78
2023-09-03T17:47:35.282Z,52.83
2023-09-03T17:50:10.087Z,19.65
2023-09-03T17:52:40.240Z,7.60
2023-09-03T17:55:12.405Z,4.80
2023-09-03T17:57:43.638Z,3.67
2023-09-03T18:00:16.581Z,3.95
2023-09-03T18:02:47.804Z,5.38
2023-09-03T18:05:19.694Z,2.55
2023-09-03T18:07:49.802Z,3.08
2023-09-03T18:10:20.265Z,3.08
2023-09-03T18:12:50.716Z,4.15
2023-09-03T18:15:23.608Z,3.47
2023-09-03T18:17:53.787Z,3.72
2023-09-03T18:20:25.046Z,2.97
2023-09-03T18:22:55.159Z,2.85
2023-09-03T18:25:26.891Z,7.30
2023-09-03T18:27:57.665Z,3.42
2023-09-03T18:30:30.453Z,5.20
2023-09-03T18:33:00.569Z,4.22
2023-09-03T18:35:30.960Z,2.92
2023-09-03T18:38:01.026Z,3.88
2023-09-03T18:40:33.151Z,5.03
2023-09-03T18:43:03.301Z,2.88
2023-09-03T18:45:36.110Z,3.45
2023-09-03T18:48:06.541Z,4.38
2023-09-03T18:50:36.109Z,3.33
2023-09-03T18:53:07.061Z,3.35
2023-09-03T18:55:40.268Z,3.50
2023-09-03T18:58:10.534Z,2.92
2023-09-03T19:00:43.270Z,6.57
2023-09-03T19:03:13.471Z,79.32
2023-09-03T19:05:47.834Z,7.40
2023-09-03T19:08:20.468Z,4.55
2023-09-03T19:10:58.211Z,3.78
2023-09-03T19:13:28.453Z,4.40
2023-09-03T19:16:02.319Z,5.43
2023-09-03T19:18:35.330Z,4.60
2023-09-03T19:21:05.382Z,4.65
2023-09-03T19:23:38.112Z,4.53
2023-09-03T19:26:09.331Z,7.45
2023-09-03T19:28:39.512Z,6.05
2023-09-03T19:31:12.249Z,6.30
2023-09-03T19:33:42.516Z,6.00
2023-09-03T19:36:12.630Z,5.93
2023-09-03T19:38:42.837Z,5.93
2023-09-03T19:41:12.958Z,5.82
2023-09-03T19:43:43.001Z,26.60
2023-09-03T19:46:15.761Z,7.07
2023-09-03T19:48:47.146Z,5.47
2023-09-03T19:51:17.180Z,5.47
2023-09-03T19:53:47.781Z,8.98
2023-09-03T19:56:22.354Z,4.75
2023-09-03T19:58:53.942Z,6.25
2023-09-03T20:01:28.344Z,10.32
2023-09-03T20:03:58.762Z,5.47
2023-09-03T20:06:29.150Z,5.30
2023-09-03T20:08:59.259Z,7.90
2023-09-03T20:11:29.535Z,5.50
2023-09-03T20:14:00.589Z,10.07
2023-09-03T20:16:34.874Z,7.13
2023-09-03T20:19:07.322Z,8.25
2023-09-03T20:21:38.151Z,7.72
2023-09-03T20:24:09.310Z,7.10
2023-09-03T20:26:39.539Z,6.63
2023-09-03T20:29:10.037Z,10.35
2023-09-03T20:31:45.197Z,6.22
2023-09-03T20:34:15.463Z,6.35
2023-09-03T20:36:45.586Z,6.05
2023-09-03T20:39:19.002Z,10.88
2023-09-03T20:41:49.037Z,6.07
2023-09-03T20:44:19.366Z,6.75
2023-09-03T20:46:53.430Z,5.85
2023-09-03T20:49:23.654Z,6.38
2023-09-03T20:51:54.072Z,5.43
2023-09-03T20:54:26.200Z,5.30
2023-09-03T20:56:56.384Z,4.85
2023-09-03T20:59:26.564Z,6.90
2023-09-03T21:01:59.954Z,5.28
2023-09-03T21:04:30.185Z,5.50
2023-09-03T21:07:00.373Z,5.50
2023-09-03T21:09:30.624Z,4.43
2023-09-03T21:12:00.858Z,6.25
2023-09-03T21:14:30.912Z,9.05
2023-09-03T21:17:04.252Z,7.00
2023-09-03T21:19:34.606Z,9.15
2023-09-03T21:22:04.715Z,5.68
2023-09-03T21:24:34.856Z,5.78
2023-09-03T21:27:04.952Z,6.18
2023-09-03T21:29:35.099Z,6.43
2023-09-03T21:32:09.075Z,8.43
2023-09-03T21:34:39.470Z,8.43
2023-09-03T21:37:09.522Z,5.47
2023-09-03T21:39:39.861Z,6.20
2023-09-03T21:42:09.995Z,6.15
2023-09-03T21:44:40.012Z,7.28
2023-09-03T21:47:12.809Z,6.05
2023-09-03T21:49:42.970Z,7.38
2023-09-03T21:52:13.261Z,7.10
2023-09-03T21:54:43.361Z,6.78
2023-09-03T21:57:13.495Z,5.80
2023-09-03T21:59:44.064Z,6.38
2023-09-03T22:02:19.094Z,7.85
2023-09-03T22:04:49.181Z,5.82
2023-09-03T22:07:19.347Z,5.70
2023-09-03T22:09:49.635Z,6.38
2023-09-03T22:12:19.754Z,6.97
2023-09-03T22:14:49.856Z,6.40
2023-09-03T22:17:22.605Z,6.85
2023-09-03T22:19:53.577Z,6.68
2023-09-03T22:22:23.643Z,6.37
2023-09-03T22:24:53.924Z,7.30
2023-09-03T22:27:26.284Z,8.57
2023-09-03T22:29:56.810Z,7.17
2023-09-03T22:32:31.319Z,7.43
2023-09-03T22:35:01.436Z,7.33
2023-09-03T22:37:31.783Z,11.65
2023-09-03T22:40:04.524Z,9.03
2023-09-03T22:42:34.871Z,7.03
2023-09-03T22:45:05.143Z,7.88
2023-09-03T22:47:38.278Z,8.20
2023-09-03T22:50:09.767Z,8.63
2023-09-03T22:52:39.872Z,9.77
2023-09-03T22:55:10.722Z,8.13
2023-09-03T22:57:41.037Z,7.60
2023-09-03T23:00:13.234Z,7.28
2023-09-03T23:02:47.596Z,6.53
2023-09-03T23:05:17.700Z,8.30
2023-09-03T23:07:47.887Z,7.68
2023-09-03T23:10:18.054Z,7.23
2023-09-03T23:12:48.137Z,7.33
2023-09-03T23:15:18.582Z,8.03
2023-09-03T23:17:51.519Z,8.90
2023-09-03T23:20:21.927Z,7.93
2023-09-03T23:22:52.210Z,7.70
2023-09-03T23:25:22.567Z,7.17
2023-09-03T23:27:53.223Z,7.93
2023-09-03T23:30:23.425Z,7.63
2023-09-03T23:32:56.238Z,7.50
2023-09-03T23:35:26.898Z,7.77
2023-09-03T23:38:00.467Z,8.87
2023-09-03T23:40:30.811Z,9.70
2023-09-03T23:43:00.836Z,8.47
2023-09-03T23:45:30.887Z,8.93
2023-09-03T23:48:03.836Z,9.47
2023-09-03T23:50:33.920Z,12.60
2023-09-03T23:53:04.122Z,8.17
2023-09-03T23:55:34.123Z,8.63
2023-09-03T23:58:04.257Z,9.40
